createdAt,value
2023-05-11T00:00:52.288Z,95139.34
2023-05-11T00:04:35.235Z,95144.19
2023-05-11T00:08:18.084Z,95134.13
2023-05-11T00:12:01.670Z,95134.31
2023-05-11T00:15:44.771Z,95134.31
2023-05-11T00:19:31.385Z,95130.69
2023-05-11T00:23:14.110Z,95131.69
2023-05-11T00:26:56.894Z,95131.69
2023-05-11T00:30:41.152Z,95122.00
2023-05-11T00:34:23.993Z,95120.19
2023-05-11T00:38:08.221Z,95122.44
2023-05-11T00:41:50.999Z,95123.03
2023-05-11T00:45:34.194Z,95113.56
2023-05-11T00:49:21.319Z,95114.97
2023-05-11T00:53:04.278Z,95112.53
2023-05-11T00:56:49.298Z,95108.69
2023-05-11T01:00:31.982Z,95111.31
2023-05-11T01:04:14.778Z,95105.47
2023-05-11T01:08:02.304Z,95107.09
2023-05-11T01:11:52.970Z,95106.28
2023-05-11T01:15:41.306Z,95107.91
2023-05-11T01:19:33.341Z,95103.47
2023-05-11T01:23:54.818Z,95105.47
2023-05-11T01:28:05.197Z,95096.00
2023-05-11T01:31:49.621Z,95097.41
2023-05-11T01:35:34.346Z,95103.47
2023-05-11T01:39:17.990Z,95098.22
2023-05-11T01:43:03.227Z,95103.47
2023-05-11T01:46:46.032Z,95100.22
2023-05-11T01:50:30.450Z,95101.22
2023-05-11T01:54:13.380Z,95099.63
2023-05-11T01:57:57.066Z,95093.75
2023-05-11T02:01:40.828Z,95089.72
2023-05-11T02:05:25.529Z,95094.16
2023-05-11T02:09:11.364Z,95089.72
2023-05-11T02:12:54.503Z,95098.59
2023-05-11T02:16:37.269Z,95091.75
2023-05-11T02:20:20.974Z,95099.00
2023-05-11T02:24:04.654Z,95083.66
2023-05-11T02:27:48.665Z,95086.91
2023-05-11T02:31:33.842Z,95095.78
2023-05-11T02:35:18.721Z,95083.25
2023-05-11T02:39:05.229Z,95091.31
2023-05-11T02:42:50.990Z,95083.47
2023-05-11T02:46:36.725Z,95087.91
2023-05-11T02:50:20.377Z,95082.03
2023-05-11T02:54:04.627Z,95072.75
2023-05-11T02:57:48.869Z,95084.44
2023-05-11T03:01:31.890Z,95075.13
2023-05-11T03:05:15.727Z,95078.56
2023-05-11T03:08:58.627Z,95081.38
2023-05-11T03:12:41.334Z,95089.03
2023-05-11T03:16:25.863Z,95080.56
2023-05-11T03:20:10.643Z,95076.72
2023-05-11T03:23:54.127Z,95065.00
2023-05-11T03:27:37.649Z,95066.63
2023-05-11T03:31:20.542Z,95073.47
2023-05-11T03:35:05.024Z,95071.88
2023-05-11T03:38:48.811Z,95068.63
2023-05-11T03:42:32.162Z,95059.34
2023-05-11T03:46:15.458Z,95054.50
2023-05-11T03:49:59.087Z,95058.94
2023-05-11T03:53:43.307Z,95050.06
2023-05-11T03:57:26.827Z,95056.94
2023-05-11T04:01:10.073Z,95056.94
2023-05-11T04:04:53.427Z,95054.91
2023-05-11T04:08:36.410Z,95052.50
2023-05-11T04:12:23.275Z,95051.69
2023-05-11T04:16:06.628Z,95048.47
2023-05-11T04:19:49.543Z,95050.47
2023-05-11T04:23:32.261Z,95055.94
2023-05-11T04:27:16.485Z,95062.38
2023-05-11T04:31:00.623Z,95056.53
2023-05-11T04:34:46.078Z,95058.72
2023-05-11T04:38:28.795Z,95058.47
2023-05-11T04:42:11.532Z,95068.41
2023-05-11T04:45:54.302Z,95058.53
2023-05-11T04:49:39.522Z,95061.34
2023-05-11T04:53:22.318Z,95064.72
2023-05-11T04:57:05.063Z,95059.88
2023-05-11T05:00:47.758Z,95077.00
2023-05-11T05:04:30.957Z,95068.41
2023-05-11T05:08:15.440Z,95069.19
2023-05-11T05:11:58.234Z,95079.06
2023-05-11T05:15:40.889Z,95070.22
2023-05-11T05:19:23.545Z,95072.22
2023-05-11T05:23:06.267Z,95066.34
2023-05-11T05:26:51.480Z,95077.81
2023-05-11T05:30:34.848Z,95077.81
2023-05-11T05:34:17.621Z,95083.06
2023-05-11T05:38:00.311Z,95078.00
2023-05-11T05:41:43.093Z,95090.31
2023-05-11T05:45:27.200Z,95074.16
2023-05-11T05:49:12.602Z,95088.28
2023-05-11T05:52:55.296Z,95080.41
2023-05-11T05:56:40.986Z,95080.22
2023-05-11T06:00:23.996Z,95079.03
2023-05-11T06:04:08.277Z,95083.88
2023-05-11T06:08:01.896Z,95086.50
2023-05-11T06:11:54.054Z,95091.72
2023-05-11T06:15:40.001Z,95095.16
2023-05-11T06:19:26.045Z,95086.94
2023-05-11T06:23:08.970Z,95089.97
2023-05-11T06:26:51.657Z,95086.75
2023-05-11T06:30:34.378Z,95079.69
2023-05-11T06:34:19.198Z,95083.81
2023-05-11T06:38:03.290Z,95088.13
2023-05-11T06:41:45.957Z,95091.41
2023-05-11T06:45:28.731Z,95082.13
2023-05-11T06:49:11.521Z,95089.41
2023-05-11T06:52:54.405Z,95081.69
2023-05-11T06:56:38.688Z,95083.31
2023-05-11T07:00:21.937Z,95082.91
2023-05-11T07:04:04.823Z,95099.06
2023-05-11T07:07:47.533Z,95087.53
2023-05-11T07:11:31.717Z,95084.50
2023-05-11T07:15:15.949Z,95084.09
2023-05-11T07:18:58.655Z,95087.31
2023-05-11T07:22:41.399Z,95086.50
2023-05-11T07:26:24.152Z,95094.38
2023-05-11T07:30:08.233Z,95091.75
2023-05-11T07:33:53.252Z,95088.13
2023-05-11T07:37:35.959Z,95098.59
2023-05-11T07:41:19.206Z,95094.97
2023-05-11T07:45:01.921Z,95093.75
2023-05-11T07:48:45.027Z,95098.59
2023-05-11T07:52:29.162Z,95096.38
2023-05-11T07:56:12.295Z,95097.19
2023-05-11T07:59:55.006Z,95098.22
2023-05-11T08:03:37.809Z,95088.94
2023-05-11T08:07:20.560Z,95088.75
2023-05-11T08:11:05.900Z,95099.03
2023-05-11T08:14:48.592Z,95084.50
2023-05-11T08:18:31.342Z,95089.75
2023-05-11T08:22:14.148Z,95090.56
2023-05-11T08:25:57.264Z,95088.75
2023-05-11T08:29:41.331Z,95095.81
2023-05-11T08:33:36.718Z,95084.53
2023-05-11T08:37:20.709Z,95081.09
2023-05-11T08:41:04.920Z,95076.44
2023-05-11T08:44:49.314Z,95081.69
2023-05-11T08:48:32.296Z,95071.81
2023-05-11T08:52:15.468Z,95074.47
2023-05-11T08:56:01.098Z,95079.72
2023-05-11T08:59:45.816Z,95083.34
2023-05-11T09:03:31.071Z,95070.84
2023-05-11T09:07:16.071Z,95070.44
2023-05-11T09:10:59.621Z,95084.16
2023-05-11T09:14:42.308Z,95082.75
2023-05-11T09:18:25.014Z,95080.72
2023-05-11T09:22:09.472Z,95074.44
2023-05-11T09:25:52.200Z,95078.09
2023-05-11T09:29:34.901Z,95072.41
2023-05-11T09:33:25.734Z,95067.59
2023-05-11T09:37:17.481Z,95071.22
2023-05-11T09:41:03.161Z,95068.81
2023-05-11T09:44:46.799Z,95070.81
2023-05-11T09:48:31.872Z,95074.66
2023-05-11T09:52:18.273Z,95076.47
2023-05-11T09:56:04.322Z,95080.91
2023-05-11T09:59:47.186Z,95069.41
2023-05-11T10:03:30.272Z,95062.75
2023-05-11T10:07:13.026Z,95067.38
2023-05-11T10:10:57.365Z,95061.91
2023-05-11T10:14:40.024Z,95069.38
2023-05-11T10:18:22.910Z,95052.44
2023-05-11T10:22:06.661Z,95062.75
2023-05-11T10:25:49.724Z,95064.75
2023-05-11T10:29:34.065Z,95075.47
2023-05-11T10:33:18.118Z,95062.31
2023-05-11T10:37:01.920Z,95055.06
2023-05-11T10:40:47.085Z,95057.88
2023-05-11T10:44:59.603Z,95046.53
2023-05-11T10:49:06.522Z,95054.22
2023-05-11T10:53:07.940Z,95055.84
2023-05-11T10:57:01.786Z,95050.59
2023-05-11T11:01:25.358Z,95048.56
2023-05-11T11:05:10.848Z,95053.41
2023-05-11T11:08:58.613Z,95053.78
2023-05-11T11:12:42.019Z,95057.69
2023-05-11T11:16:26.242Z,95050.38
2023-05-11T11:20:10.176Z,95052.25
2023-05-11T11:23:55.994Z,95055.34
2023-05-11T11:27:56.918Z,95058.81
2023-05-11T11:31:43.372Z,95060.19
2023-05-11T11:35:46.409Z,95052.53
2023-05-11T11:39:30.512Z,95047.28
2023-05-11T11:43:18.880Z,95054.13
2023-05-11T11:47:16.193Z,95054.75
2023-05-11T11:51:04.373Z,95048.06
2023-05-11T11:54:47.433Z,95050.09
2023-05-11T11:59:00.601Z,95054.91
2023-05-11T12:02:46.044Z,95047.03
2023-05-11T12:06:37.051Z,95044.41
2023-05-11T12:10:20.854Z,95041.19
2023-05-11T12:14:03.964Z,95041.59
2023-05-11T12:17:48.151Z,95041.00
2023-05-11T12:21:32.725Z,95046.25
2023-05-11T12:25:17.604Z,95041.38
2023-05-11T12:29:08.523Z,95035.72
2023-05-11T12:36:38.698Z,95036.09
2023-05-11T12:40:21.475Z,95029.84
2023-05-11T12:44:04.277Z,95025.00
2023-05-11T12:47:47.824Z,95032.88
2023-05-11T12:51:52.529Z,95025.81
2023-05-11T12:55:35.370Z,95035.09
2023-05-11T12:59:29.528Z,95024.56
2023-05-11T13:03:12.491Z,95026.38
2023-05-11T13:06:56.858Z,95018.09
2023-05-11T13:10:39.627Z,95014.41
2023-05-11T13:14:23.131Z,95000.56
2023-05-11T13:18:08.920Z,95011.09
2023-05-11T13:21:51.759Z,95007.78
2023-05-11T13:25:37.144Z,95009.03
2023-05-11T13:29:19.982Z,95004.97
2023-05-11T13:33:02.772Z,95000.47
2023-05-11T13:36:45.880Z,94999.47
2023-05-11T13:40:28.851Z,95004.81
2023-05-11T13:44:13.057Z,95000.47
2023-05-11T13:47:56.408Z,94987.88
2023-05-11T13:51:39.164Z,94991.63
2023-05-11T13:55:22.403Z,94997.56
2023-05-11T13:59:05.196Z,94990.47
2023-05-11T14:02:50.694Z,94996.97
2023-05-11T14:06:35.360Z,94991.22
2023-05-11T14:10:18.473Z,94983.94
2023-05-11T14:14:01.286Z,94994.91
2023-05-11T14:17:44.181Z,94988.84
2023-05-11T14:21:29.095Z,94983.16
2023-05-11T14:25:11.962Z,94992.47
2023-05-11T14:28:54.668Z,94989.25
2023-05-11T14:32:37.678Z,94978.75
2023-05-11T14:36:20.647Z,94978.75
2023-05-11T14:40:05.390Z,94992.91
2023-05-11T14:43:49.332Z,94986.41
2023-05-11T14:47:32.822Z,94982.56
2023-05-11T14:51:17.035Z,94988.84
2023-05-11T14:54:59.910Z,94978.91
2023-05-11T14:58:44.385Z,94991.22
2023-05-11T15:02:27.380Z,94983.16
2023-05-11T15:06:10.286Z,94991.47
2023-05-11T15:09:53.328Z,94991.94
2023-05-11T15:13:36.095Z,95001.47
2023-05-11T15:17:27.794Z,94993.75
2023-05-11T15:21:11.010Z,95004.72
2023-05-11T15:24:53.656Z,94997.47
2023-05-11T15:28:36.421Z,94997.25
2023-05-11T15:32:21.109Z,95004.72
2023-05-11T15:36:03.985Z,95003.97
2023-05-11T15:39:46.754Z,95004.34
2023-05-11T15:43:29.701Z,95005.53
2023-05-11T15:47:13.034Z,95010.84
2023-05-11T15:50:57.223Z,95004.72
2023-05-11T15:54:40.247Z,95006.94
2023-05-11T15:58:24.017Z,95006.72
2023-05-11T16:02:12.418Z,94998.75
2023-05-11T16:05:55.576Z,95000.81
2023-05-11T16:09:39.680Z,95002.50
2023-05-11T16:13:22.818Z,95005.75
2023-05-11T16:17:05.921Z,95009.03
2023-05-11T16:20:48.695Z,95013.09
2023-05-11T16:24:34.339Z,95001.38
2023-05-11T16:28:19.165Z,95002.84
2023-05-11T16:32:02.040Z,95007.06
2023-05-11T16:35:44.796Z,95001.22
2023-05-11T16:39:27.808Z,95000.78
2023-05-11T16:43:10.572Z,95000.13
2023-05-11T16:46:54.865Z,95004.78
2023-05-11T16:50:37.756Z,94986.00
2023-05-11T16:54:20.959Z,94996.13
2023-05-11T16:58:04.094Z,94992.31
2023-05-11T17:01:46.895Z,94991.28
2023-05-11T17:05:31.229Z,94983.19
2023-05-11T17:09:14.412Z,94989.84
2023-05-11T17:12:57.850Z,94983.16
2023-05-11T17:16:41.635Z,94983.94
2023-05-11T17:20:24.364Z,94985.34
2023-05-11T17:24:08.838Z,94987.56
2023-05-11T17:27:51.516Z,94978.28
2023-05-11T17:31:34.509Z,94989.59
2023-05-11T17:35:17.593Z,94978.28
2023-05-11T17:39:01.352Z,94987.13
2023-05-11T17:42:45.386Z,94976.19
2023-05-11T17:46:29.831Z,94979.44
2023-05-11T17:50:12.689Z,94983.31
2023-05-11T17:53:56.084Z,94980.53
2023-05-11T17:57:38.803Z,94980.94
2023-05-11T18:01:22.927Z,94980.34
2023-05-11T18:05:06.183Z,94985.63
2023-05-11T18:08:49.043Z,94979.06
2023-05-11T18:12:32.474Z,94983.81
2023-05-11T18:16:15.221Z,94987.03
2023-05-11T18:19:59.386Z,94991.44
2023-05-11T18:23:42.445Z,94990.63
2023-05-11T18:27:25.688Z,94987.19
2023-05-11T18:31:08.389Z,94995.88
2023-05-11T18:34:51.062Z,94990.84
2023-05-11T18:38:35.121Z,94995.69
2023-05-11T18:42:20.720Z,94988.41
2023-05-11T18:46:08.061Z,94991.44
2023-05-11T18:49:50.807Z,94991.69
2023-05-11T18:53:34.968Z,94987.03
2023-05-11T18:57:20.100Z,94991.88
2023-05-11T19:01:04.156Z,94996.31
2023-05-11T19:04:46.859Z,94991.44
2023-05-11T19:08:29.871Z,95003.03
2023-05-11T19:12:13.918Z,95007.50
2023-05-11T19:15:56.603Z,95001.81
2023-05-11T19:19:39.368Z,95006.47
2023-05-11T19:23:22.047Z,95012.53
2023-05-11T19:27:07.801Z,95002.22
2023-05-11T19:31:00.698Z,95008.09
2023-05-11T19:34:43.421Z,95006.94
2023-05-11T19:38:26.484Z,95015.03
2023-05-11T19:42:09.483Z,95013.00
2023-05-11T19:45:56.641Z,95006.13
2023-05-11T19:49:39.385Z,95008.13
2023-05-11T19:53:22.084Z,95010.16
2023-05-11T19:57:05.477Z,95018.69
2023-05-11T20:00:51.654Z,95010.97
2023-05-11T20:04:36.162Z,95013.78
2023-05-11T20:08:19.015Z,95010.53
2023-05-11T20:12:02.125Z,95008.34
2023-05-11T20:15:44.867Z,95008.22
2023-05-11T20:19:27.556Z,95006.31
2023-05-11T20:23:14.476Z,95010.06
2023-05-11T20:26:57.133Z,95008.88
2023-05-11T20:30:39.751Z,95006.22
2023-05-11T20:34:22.655Z,95008.38
2023-05-11T20:38:08.513Z,95000.09
2023-05-11T20:41:52.803Z,95005.97
2023-05-11T20:45:35.619Z,95007.78
2023-05-11T20:49:30.794Z,95006.34
2023-05-11T20:53:17.836Z,94996.03
2023-05-11T20:57:02.465Z,94993.75
2023-05-11T21:00:45.343Z,94999.78
2023-05-11T21:04:29.753Z,94990.63
2023-05-11T21:08:12.918Z,94996.81
2023-05-11T21:11:55.646Z,94988.22
2023-05-11T21:15:39.716Z,94990.63
2023-05-11T21:19:22.439Z,94982.88
2023-05-11T21:23:05.474Z,94985.06
2023-05-11T21:26:49.776Z,94982.44
2023-05-11T21:30:32.714Z,94984.88
2023-05-11T21:34:18.144Z,94996.19
2023-05-11T21:38:00.868Z,94992.53
2023-05-11T21:41:43.554Z,94984.88
2023-05-11T21:45:27.324Z,94990.72
2023-05-11T21:49:10.158Z,94990.50
2023-05-11T21:52:54.246Z,94997.81
2023-05-11T21:56:36.982Z,94996.19
2023-05-11T22:00:22.418Z,95000.22
2023-05-11T22:04:05.751Z,94989.47
2023-05-11T22:07:49.109Z,94992.28
2023-05-11T22:11:39.661Z,94997.69
2023-05-11T22:15:22.639Z,94992.00
2023-05-11T22:19:05.402Z,94997.69
2023-05-11T22:22:48.201Z,94995.56
2023-05-11T22:26:31.061Z,94998.25
2023-05-11T22:30:15.467Z,95002.75
2023-05-11T22:33:59.099Z,95000.75
2023-05-11T22:37:41.851Z,95004.78
2023-05-11T22:41:24.676Z,94999.97
2023-05-11T22:45:08.644Z,95003.38
2023-05-11T22:48:52.687Z,95004.00
2023-05-11T22:52:35.432Z,95008.09
2023-05-11T22:56:18.262Z,95005.06
2023-05-11T23:00:00.914Z,95010.97
2023-05-11T23:03:43.669Z,95007.00
2023-05-11T23:07:27.767Z,95008.59
2023-05-11T23:11:10.442Z,95007.19
2023-05-11T23:14:53.401Z,95011.06
2023-05-11T23:18:36.295Z,95011.28
2023-05-11T23:22:22.478Z,95001.38
2023-05-11T23:26:06.546Z,95006.06
2023-05-11T23:29:50.543Z,94994.94
2023-05-11T23:33:33.236Z,95003.03
2023-05-11T23:37:16.975Z,95000.41
2023-05-11T23:40:59.625Z,95002.03
2023-05-11T23:44:43.947Z,94994.34
2023-05-11T23:48:26.570Z,94992.94
2023-05-11T23:52:09.504Z,94986.72
2023-05-11T23:55:52.197Z,94989.34
2023-05-11T23:59:34.880Z,94988.16
